sensor_id;sensor_type;location;lat;lon;timestamp;P1;durP1;ratioP1;P2;durP2;ratioP2
35961;SDS011;22044;48.298;10.008;2023-06-19T00:02:17;8.88;;;7.97;;
35961;SDS011;22044;48.298;10.008;2023-06-19T00:05:04;9.40;;;8.50;;
35961;SDS011;22044;48.298;10.008;2023-06-19T00:07:52;10.07;;;9.07;;
35961;SDS011;22044;48.298;10.008;2023-06-19T00:10:38;10.43;;;8.80;;
35961;SDS011;22044;48.298;10.008;2023-06-19T00:13:23;9.60;;;8.80;;
35961;SDS011;22044;48.298;10.008;2023-06-19T00:16:09;9.20;;;8.40;;
35961;SDS011;22044;48.298;10.008;2023-06-19T00:18:55;10.10;;;9.05;;
35961;SDS011;22044;48.298;10.008;2023-06-19T00:21:41;9.60;;;8.63;;
35961;SDS011;22044;48.298;10.008;2023-06-19T00:24:28;9.32;;;8.43;;
35961;SDS011;22044;48.298;10.008;2023-06-19T00:27:13;10.95;;;8.63;;
35961;SDS011;22044;48.298;10.008;2023-06-19T00:29:59;10.60;;;9.30;;
35961;SDS011;22044;48.298;10.008;2023-06-19T00:32:46;9.60;;;8.70;;
35961;SDS011;22044;48.298;10.008;2023-06-19T00:35:33;9.98;;;8.95;;
35961;SDS011;22044;48.298;10.008;2023-06-19T00:38:19;10.27;;;9.35;;
35961;SDS011;22044;48.298;10.008;2023-06-19T00:41:06;10.18;;;9.18;;
35961;SDS011;22044;48.298;10.008;2023-06-19T00:43:53;9.65;;;8.75;;
35961;SDS011;22044;48.298;10.008;2023-06-19T00:46:39;9.98;;;8.98;;
35961;SDS011;22044;48.298;10.008;2023-06-19T00:49:26;10.93;;;9.93;;
35961;SDS011;22044;48.298;10.008;2023-06-19T00:52:14;9.65;;;8.75;;
35961;SDS011;22044;48.298;10.008;2023-06-19T00:55:01;10.23;;;9.10;;
35961;SDS011;22044;48.298;10.008;2023-06-19T00:57:49;10.85;;;9.27;;
35961;SDS011;22044;48.298;10.008;2023-06-19T01:00:37;10.13;;;9.23;;
35961;SDS011;22044;48.298;10.008;2023-06-19T01:03:22;12.73;;;8.98;;
35961;SDS011;22044;48.298;10.008;2023-06-19T01:06:10;9.85;;;8.95;;
35961;SDS011;22044;48.298;10.008;2023-06-19T01:09:01;9.52;;;8.73;;
35961;SDS011;22044;48.298;10.008;2023-06-19T01:11:52;11.07;;;9.25;;
35961;SDS011;22044;48.298;10.008;2023-06-19T01:14:44;10.15;;;9.15;;
35961;SDS011;22044;48.298;10.008;2023-06-19T01:17:37;10.70;;;9.55;;
35961;SDS011;22044;48.298;10.008;2023-06-19T01:20:24;10.68;;;9.68;;
35961;SDS011;22044;48.298;10.008;2023-06-19T01:23:11;11.38;;;10.38;;
35961;SDS011;22044;48.298;10.008;2023-06-19T01:25:57;9.32;;;8.43;;
35961;SDS011;22044;48.298;10.008;2023-06-19T01:28:43;10.40;;;9.50;;
35961;SDS011;22044;48.298;10.008;2023-06-19T01:31:31;10.43;;;9.35;;
35961;SDS011;22044;48.298;10.008;2023-06-19T01:34:20;10.95;;;9.95;;
35961;SDS011;22044;48.298;10.008;2023-06-19T01:37:06;13.77;;;10.25;;
35961;SDS011;22044;48.298;10.008;2023-06-19T01:39:56;10.68;;;9.45;;
35961;SDS011;22044;48.298;10.008;2023-06-19T01:42:42;12.13;;;10.35;;
35961;SDS011;22044;48.298;10.008;2023-06-19T01:45:28;10.80;;;9.80;;
35961;SDS011;22044;48.298;10.008;2023-06-19T01:48:15;10.68;;;9.68;;
35961;SDS011;22044;48.298;10.008;2023-06-19T01:51:00;10.98;;;9.88;;
35961;SDS011;22044;48.298;10.008;2023-06-19T01:53:46;10.77;;;9.73;;
35961;SDS011;22044;48.298;10.008;2023-06-19T01:56:33;11.00;;;9.90;;
35961;SDS011;22044;48.298;10.008;2023-06-19T01:59:19;10.95;;;9.85;;
35961;SDS011;22044;48.298;10.008;2023-06-19T02:02:06;10.88;;;9.88;;
35961;SDS011;22044;48.298;10.008;2023-06-19T02:04:52;11.05;;;9.93;;
35961;SDS011;22044;48.298;10.008;2023-06-19T02:07:37;10.13;;;9.15;;
35961;SDS011;22044;48.298;10.008;2023-06-19T02:10:23;11.05;;;10.07;;
35961;SDS011;22044;48.298;10.008;2023-06-19T02:13:10;11.18;;;10.18;;
35961;SDS011;22044;48.298;10.008;2023-06-19T02:15:56;14.68;;;10.32;;
35961;SDS011;22044;48.298;10.008;2023-06-19T02:18:45;11.07;;;10.07;;
35961;SDS011;22044;48.298;10.008;2023-06-19T02:21:32;10.80;;;9.68;;
35961;SDS011;22044;48.298;10.008;2023-06-19T02:24:17;11.23;;;10.10;;
35961;SDS011;22044;48.298;10.008;2023-06-19T02:27:03;10.95;;;9.95;;
35961;SDS011;22044;48.298;10.008;2023-06-19T02:29:51;11.75;;;10.55;;
35961;SDS011;22044;48.298;10.008;2023-06-19T02:32:36;11.25;;;10.15;;
35961;SDS011;22044;48.298;10.008;2023-06-19T02:35:22;12.10;;;10.90;;
35961;SDS011;22044;48.298;10.008;2023-06-19T02:38:08;10.93;;;9.93;;
35961;SDS011;22044;48.298;10.008;2023-06-19T02:40:54;13.25;;;10.85;;
35961;SDS011;22044;48.298;10.008;2023-06-19T02:43:42;15.15;;;11.30;;
35961;SDS011;22044;48.298;10.008;2023-06-19T02:46:29;12.20;;;11.10;;
35961;SDS011;22044;48.298;10.008;2023-06-19T02:49:14;11.75;;;10.70;;
35961;SDS011;22044;48.298;10.008;2023-06-19T02:52:00;12.15;;;10.75;;
35961;SDS011;22044;48.298;10.008;2023-06-19T02:54:47;11.75;;;10.60;;
35961;SDS011;22044;48.298;10.008;2023-06-19T02:57:33;11.73;;;10.70;;
35961;SDS011;22044;48.298;10.008;2023-06-19T03:00:20;10.47;;;9.57;;
35961;SDS011;22044;48.298;10.008;2023-06-19T03:03:08;12.07;;;10.93;;
35961;SDS011;22044;48.298;10.008;2023-06-19T03:05:55;12.77;;;11.50;;
35961;SDS011;22044;48.298;10.008;2023-06-19T03:08:40;11.65;;;10.55;;
35961;SDS011;22044;48.298;10.008;2023-06-19T03:11:26;12.10;;;10.70;;
35961;SDS011;22044;48.298;10.008;2023-06-19T03:14:12;12.13;;;10.77;;
35961;SDS011;22044;48.298;10.008;2023-06-19T03:16:57;12.20;;;11.10;;
35961;SDS011;22044;48.298;10.008;2023-06-19T03:19:46;10.45;;;9.55;;
35961;SDS011;22044;48.298;10.008;2023-06-19T03:22:32;12.60;;;11.30;;
35961;SDS011;22044;48.298;10.008;2023-06-19T03:25:17;13.05;;;11.23;;
35961;SDS011;22044;48.298;10.008;2023-06-19T03:28:05;11.77;;;10.68;;
35961;SDS011;22044;48.298;10.008;2023-06-19T03:30:51;10.70;;;9.80;;
35961;SDS011;22044;48.298;10.008;2023-06-19T03:33:41;11.50;;;10.40;;
35961;SDS011;22044;48.298;10.008;2023-06-19T03:36:29;11.63;;;10.63;;
35961;SDS011;22044;48.298;10.008;2023-06-19T03:39:22;11.90;;;10.40;;
35961;SDS011;22044;48.298;10.008;2023-06-19T03:42:08;10.23;;;9.23;;
35961;SDS011;22044;48.298;10.008;2023-06-19T03:44:54;10.80;;;9.70;;
35961;SDS011;22044;48.298;10.008;2023-06-19T03:47:39;10.93;;;8.98;;
35961;SDS011;22044;48.298;10.008;2023-06-19T03:50:25;11.27;;;8.47;;
35961;SDS011;22044;48.298;10.008;2023-06-19T03:53:12;9.20;;;8.40;;
35961;SDS011;22044;48.298;10.008;2023-06-19T03:55:57;9.60;;;8.53;;
35961;SDS011;22044;48.298;10.008;2023-06-19T03:58:43;9.80;;;8.95;;
35961;SDS011;22044;48.298;10.008;2023-06-19T04:01:30;9.60;;;8.70;;
35961;SDS011;22044;48.298;10.008;2023-06-19T04:04:15;10.63;;;8.98;;
35961;SDS011;22044;48.298;10.008;2023-06-19T04:07:04;8.85;;;7.95;;
35961;SDS011;22044;48.298;10.008;2023-06-19T04:09:51;8.73;;;7.82;;
35961;SDS011;22044;48.298;10.008;2023-06-19T04:12:37;9.50;;;8.53;;
35961;SDS011;22044;48.298;10.008;2023-06-19T04:15:23;9.50;;;8.50;;
35961;SDS011;22044;48.298;10.008;2023-06-19T04:18:09;8.57;;;7.77;;
35961;SDS011;22044;48.298;10.008;2023-06-19T04:20:54;8.60;;;7.80;;
35961;SDS011;22044;48.298;10.008;2023-06-19T04:23:40;9.07;;;7.95;;
35961;SDS011;22044;48.298;10.008;2023-06-19T04:26:27;9.23;;;7.32;;
35961;SDS011;22044;48.298;10.008;2023-06-19T04:29:13;8.93;;;8.05;;
35961;SDS011;22044;48.298;10.008;2023-06-19T04:32:00;8.73;;;7.53;;
35961;SDS011;22044;48.298;10.008;2023-06-19T04:34:55;8.52;;;7.68;;
35961;SDS011;22044;48.298;10.008;2023-06-19T04:37:40;8.43;;;7.72;;
35961;SDS011;22044;48.298;10.008;2023-06-19T04:40:27;8.63;;;7.72;;
35961;SDS011;22044;48.298;10.008;2023-06-19T04:43:14;8.73;;;7.93;;
35961;SDS011;22044;48.298;10.008;2023-06-19T04:45:59;8.43;;;7.63;;
35961;SDS011;22044;48.298;10.008;2023-06-19T04:48:47;8.93;;;8.07;;
35961;SDS011;22044;48.298;10.008;2023-06-19T04:51:34;8.82;;;8.02;;
35961;SDS011;22044;48.298;10.008;2023-06-19T04:54:20;8.57;;;7.78;;
35961;SDS011;22044;48.298;10.008;2023-06-19T04:57:06;8.32;;;7.60;;
35961;SDS011;22044;48.298;10.008;2023-06-19T04:59:52;8.02;;;7.28;;
35961;SDS011;22044;48.298;10.008;2023-06-19T05:02:38;10.85;;;7.75;;
35961;SDS011;22044;48.298;10.008;2023-06-19T05:05:27;9.73;;;7.38;;
35961;SDS011;22044;48.298;10.008;2023-06-19T05:08:13;9.25;;;7.68;;
35961;SDS011;22044;48.298;10.008;2023-06-19T05:10:59;8.40;;;7.43;;
35961;SDS011;22044;48.298;10.008;2023-06-19T05:13:44;9.32;;;7.22;;
35961;SDS011;22044;48.298;10.008;2023-06-19T05:16:33;8.45;;;7.65;;
35961;SDS011;22044;48.298;10.008;2023-06-19T05:19:18;8.77;;;7.93;;
35961;SDS011;22044;48.298;10.008;2023-06-19T05:22:04;8.40;;;7.65;;
35961;SDS011;22044;48.298;10.008;2023-06-19T05:24:50;8.45;;;7.65;;
35961;SDS011;22044;48.298;10.008;2023-06-19T05:27:36;8.07;;;7.28;;
35961;SDS011;22044;48.298;10.008;2023-06-19T05:30:22;7.95;;;7.15;;
35961;SDS011;22044;48.298;10.008;2023-06-19T05:33:08;9.38;;;6.70;;
35961;SDS011;22044;48.298;10.008;2023-06-19T05:35:59;7.60;;;6.90;;
35961;SDS011;22044;48.298;10.008;2023-06-19T05:38:45;7.50;;;6.80;;
35961;SDS011;22044;48.298;10.008;2023-06-19T05:41:30;7.43;;;6.75;;
35961;SDS011;22044;48.298;10.008;2023-06-19T05:44:16;8.13;;;7.43;;
35961;SDS011;22044;48.298;10.008;2023-06-19T05:47:02;8.20;;;7.40;;
35961;SDS011;22044;48.298;10.008;2023-06-19T05:49:50;7.75;;;6.85;;
35961;SDS011;22044;48.298;10.008;2023-06-19T05:52:35;7.93;;;7.05;;
35961;SDS011;22044;48.298;10.008;2023-06-19T05:55:25;7.27;;;6.57;;
35961;SDS011;22044;48.298;10.008;2023-06-19T05:58:11;7.60;;;6.78;;
35961;SDS011;22044;48.298;10.008;2023-06-19T06:00:56;7.63;;;6.93;;
35961;SDS011;22044;48.298;10.008;2023-06-19T06:03:42;8.75;;;6.35;;
35961;SDS011;22044;48.298;10.008;2023-06-19T06:06:29;7.13;;;6.43;;
35961;SDS011;22044;48.298;10.008;2023-06-19T06:09:14;9.73;;;6.80;;
35961;SDS011;22044;48.298;10.008;2023-06-19T06:12:00;6.88;;;6.18;;
35961;SDS011;22044;48.298;10.008;2023-06-19T06:14:46;6.80;;;6.10;;
35961;SDS011;22044;48.298;10.008;2023-06-19T06:17:31;7.25;;;6.65;;
35961;SDS011;22044;48.298;10.008;2023-06-19T06:20:17;7.30;;;6.60;;
35961;SDS011;22044;48.298;10.008;2023-06-19T06:23:04;7.85;;;6.45;;
35961;SDS011;22044;48.298;10.008;2023-06-19T06:25:50;9.13;;;6.53;;
35961;SDS011;22044;48.298;10.008;2023-06-19T06:28:35;6.90;;;6.30;;
35961;SDS011;22044;48.298;10.008;2023-06-19T06:31:22;9.18;;;6.13;;
35961;SDS011;22044;48.298;10.008;2023-06-19T06:34:08;6.80;;;6.10;;
35961;SDS011;22044;48.298;10.008;2023-06-19T06:36:53;7.15;;;6.45;;
35961;SDS011;22044;48.298;10.008;2023-06-19T06:39:41;8.05;;;5.95;;
35961;SDS011;22044;48.298;10.008;2023-06-19T06:42:26;6.03;;;5.50;;
35961;SDS011;22044;48.298;10.008;2023-06-19T06:45:12;8.15;;;5.13;;
35961;SDS011;22044;48.298;10.008;2023-06-19T06:47:58;7.22;;;5.88;;
35961;SDS011;22044;48.298;10.008;2023-06-19T06:50:43;7.55;;;5.68;;
35961;SDS011;22044;48.298;10.008;2023-06-19T06:53:30;6.05;;;5.55;;
35961;SDS011;22044;48.298;10.008;2023-06-19T06:56:18;7.03;;;5.80;;
35961;SDS011;22044;48.298;10.008;2023-06-19T06:59:03;6.47;;;5.20;;
35961;SDS011;22044;48.298;10.008;2023-06-19T07:01:49;6.10;;;5.60;;
35961;SDS011;22044;48.298;10.008;2023-06-19T07:04:35;5.85;;;5.35;;
35961;SDS011;22044;48.298;10.008;2023-06-19T07:07:20;8.60;;;5.28;;
35961;SDS011;22044;48.298;10.008;2023-06-19T07:10:06;6.15;;;5.55;;
35961;SDS011;22044;48.298;10.008;2023-06-19T07:12:54;6.03;;;5.43;;
35961;SDS011;22044;48.298;10.008;2023-06-19T07:15:40;5.63;;;5.00;;
35961;SDS011;22044;48.298;10.008;2023-06-19T07:18:26;5.22;;;4.80;;
35961;SDS011;22044;48.298;10.008;2023-06-19T07:21:12;6.35;;;5.55;;
35961;SDS011;22044;48.298;10.008;2023-06-19T07:23:59;5.65;;;4.82;;
35961;SDS011;22044;48.298;10.008;2023-06-19T07:26:45;5.50;;;5.00;;
35961;SDS011;22044;48.298;10.008;2023-06-19T07:29:32;5.20;;;4.70;;
35961;SDS011;22044;48.298;10.008;2023-06-19T07:32:18;5.43;;;4.82;;
35961;SDS011;22044;48.298;10.008;2023-06-19T07:35:05;5.85;;;5.35;;
35961;SDS011;22044;48.298;10.008;2023-06-19T07:37:51;5.80;;;5.30;;
35961;SDS011;22044;48.298;10.008;2023-06-19T07:40:37;5.55;;;4.85;;
35961;SDS011;22044;48.298;10.008;2023-06-19T07:43:22;6.28;;;5.00;;
35961;SDS011;22044;48.298;10.008;2023-06-19T07:46:09;5.45;;;4.82;;
35961;SDS011;22044;48.298;10.008;2023-06-19T07:48:55;6.05;;;5.10;;
35961;SDS011;22044;48.298;10.008;2023-06-19T07:51:41;6.88;;;5.10;;
35961;SDS011;22044;48.298;10.008;2023-06-19T07:54:29;5.82;;;5.32;;
35961;SDS011;22044;48.298;10.008;2023-06-19T07:57:14;5.78;;;5.00;;
35961;SDS011;22044;48.298;10.008;2023-06-19T08:00:00;6.07;;;5.47;;
35961;SDS011;22044;48.298;10.008;2023-06-19T08:02:56;7.18;;;5.15;;
35961;SDS011;22044;48.298;10.008;2023-06-19T08:05:42;5.78;;;5.22;;
35961;SDS011;22044;48.298;10.008;2023-06-19T08:08:28;6.90;;;5.70;;
35961;SDS011;22044;48.298;10.008;2023-06-19T08:11:14;5.00;;;4.57;;
35961;SDS011;22044;48.298;10.008;2023-06-19T08:13:59;6.15;;;5.28;;
35961;SDS011;22044;48.298;10.008;2023-06-19T08:16:45;8.55;;;5.40;;
35961;SDS011;22044;48.298;10.008;2023-06-19T08:19:32;9.23;;;5.53;;
35961;SDS011;22044;48.298;10.008;2023-06-19T08:22:17;5.65;;;5.15;;
35961;SDS011;22044;48.298;10.008;2023-06-19T08:25:05;6.43;;;5.57;;
35961;SDS011;22044;48.298;10.008;2023-06-19T08:27:51;6.95;;;6.07;;
35961;SDS011;22044;48.298;10.008;2023-06-19T08:30:37;5.70;;;5.20;;
35961;SDS011;22044;48.298;10.008;2023-06-19T08:33:22;5.95;;;5.43;;
35961;SDS011;22044;48.298;10.008;2023-06-19T08:36:09;8.45;;;5.47;;
35961;SDS011;22044;48.298;10.008;2023-06-19T08:38:55;9.70;;;6.10;;
35961;SDS011;22044;48.298;10.008;2023-06-19T08:41:41;5.38;;;4.70;;
35961;SDS011;22044;48.298;10.008;2023-06-19T08:44:27;5.50;;;5.00;;
35961;SDS011;22044;48.298;10.008;2023-06-19T08:47:13;5.07;;;4.68;;
35961;SDS011;22044;48.298;10.008;2023-06-19T08:49:58;9.95;;;4.97;;
35961;SDS011;22044;48.298;10.008;2023-06-19T08:52:45;6.65;;;5.13;;
35961;SDS011;22044;48.298;10.008;2023-06-19T08:55:31;6.13;;;5.35;;
35961;SDS011;22044;48.298;10.008;2023-06-19T08:58:21;6.53;;;5.07;;
35961;SDS011;22044;48.298;10.008;2023-06-19T09:01:07;5.45;;;4.95;;
35961;SDS011;22044;48.298;10.008;2023-06-19T09:03:52;7.40;;;5.57;;
35961;SDS011;22044;48.298;10.008;2023-06-19T09:06:46;5.47;;;4.97;;
35961;SDS011;22044;48.298;10.008;2023-06-19T09:09:34;5.53;;;4.93;;
35961;SDS011;22044;48.298;10.008;2023-06-19T09:12:19;5.78;;;5.30;;
35961;SDS011;22044;48.298;10.008;2023-06-19T09:15:15;6.22;;;5.40;;
35961;SDS011;22044;48.298;10.008;2023-06-19T09:18:01;5.90;;;5.30;;
35961;SDS011;22044;48.298;10.008;2023-06-19T09:20:48;5.53;;;4.65;;
35961;SDS011;22044;48.298;10.008;2023-06-19T09:23:36;5.50;;;5.00;;
35961;SDS011;22044;48.298;10.008;2023-06-19T09:26:27;5.68;;;4.88;;
35961;SDS011;22044;48.298;10.008;2023-06-19T09:29:12;4.90;;;4.43;;
35961;SDS011;22044;48.298;10.008;2023-06-19T09:31:59;5.82;;;4.95;;
35961;SDS011;22044;48.298;10.008;2023-06-19T09:34:45;6.82;;;5.82;;
35961;SDS011;22044;48.298;10.008;2023-06-19T09:37:31;5.65;;;4.65;;
35961;SDS011;22044;48.298;10.008;2023-06-19T09:40:18;5.22;;;4.75;;
35961;SDS011;22044;48.298;10.008;2023-06-19T09:43:06;5.47;;;4.40;;
35961;SDS011;22044;48.298;10.008;2023-06-19T09:45:54;4.57;;;4.03;;
35961;SDS011;22044;48.298;10.008;2023-06-19T09:48:43;4.30;;;3.90;;
35961;SDS011;22044;48.298;10.008;2023-06-19T09:51:30;5.05;;;4.28;;
35961;SDS011;22044;48.298;10.008;2023-06-19T09:54:33;4.90;;;4.40;;
35961;SDS011;22044;48.298;10.008;2023-06-19T09:57:20;4.43;;;4.03;;
35961;SDS011;22044;48.298;10.008;2023-06-19T10:02:51;6.20;;;4.00;;
35961;SDS011;22044;48.298;10.008;2023-06-19T10:05:36;5.55;;;4.10;;
35961;SDS011;22044;48.298;10.008;2023-06-19T10:08:26;6.70;;;4.03;;
35961;SDS011;22044;48.298;10.008;2023-06-19T10:11:13;4.72;;;4.25;;
35961;SDS011;22044;48.298;10.008;2023-06-19T10:14:05;4.50;;;4.10;;
35961;SDS011;22044;48.298;10.008;2023-06-19T10:16:52;5.47;;;4.55;;
35961;SDS011;22044;48.298;10.008;2023-06-19T10:19:39;4.70;;;4.07;;
35961;SDS011;22044;48.298;10.008;2023-06-19T10:22:36;4.20;;;3.80;;
35961;SDS011;22044;48.298;10.008;2023-06-19T10:25:21;4.50;;;4.05;;
35961;SDS011;22044;48.298;10.008;2023-06-19T10:28:15;5.88;;;4.32;;
35961;SDS011;22044;48.298;10.008;2023-06-19T10:31:03;5.63;;;3.75;;
35961;SDS011;22044;48.298;10.008;2023-06-19T10:33:49;4.35;;;3.80;;
35961;SDS011;22044;48.298;10.008;2023-06-19T10:36:36;5.22;;;4.32;;
35961;SDS011;22044;48.298;10.008;2023-06-19T10:39:22;4.22;;;3.83;;
35961;SDS011;22044;48.298;10.008;2023-06-19T10:42:09;5.03;;;3.53;;
35961;SDS011;22044;48.298;10.008;2023-06-19T10:44:58;4.55;;;3.70;;
35961;SDS011;22044;48.298;10.008;2023-06-19T10:47:46;3.90;;;3.60;;
35961;SDS011;22044;48.298;10.008;2023-06-19T10:50:35;5.00;;;3.97;;
35961;SDS011;22044;48.298;10.008;2023-06-19T10:53:26;5.40;;;3.72;;
35961;SDS011;22044;48.298;10.008;2023-06-19T10:56:15;4.43;;;3.90;;
35961;SDS011;22044;48.298;10.008;2023-06-19T10:59:06;3.90;;;3.55;;
35961;SDS011;22044;48.298;10.008;2023-06-19T11:01:53;4.43;;;4.03;;
35961;SDS011;22044;48.298;10.008;2023-06-19T11:04:38;3.80;;;3.50;;
35961;SDS011;22044;48.298;10.008;2023-06-19T11:07:27;4.95;;;4.00;;
35961;SDS011;22044;48.298;10.008;2023-06-19T11:10:20;4.30;;;4.00;;
35961;SDS011;22044;48.298;10.008;2023-06-19T11:13:06;4.07;;;3.65;;
35961;SDS011;22044;48.298;10.008;2023-06-19T11:15:52;4.40;;;4.00;;
35961;SDS011;22044;48.298;10.008;2023-06-19T11:18:38;4.07;;;3.78;;
35961;SDS011;22044;48.298;10.008;2023-06-19T11:21:29;3.80;;;3.50;;
35961;SDS011;22044;48.298;10.008;2023-06-19T11:24:17;6.78;;;3.75;;
35961;SDS011;22044;48.298;10.008;2023-06-19T11:27:05;4.30;;;3.90;;
35961;SDS011;22044;48.298;10.008;2023-06-19T11:29:58;5.10;;;3.90;;
35961;SDS011;22044;48.298;10.008;2023-06-19T11:32:50;5.43;;;3.40;;
35961;SDS011;22044;48.298;10.008;2023-06-19T11:35:36;5.45;;;3.45;;
35961;SDS011;22044;48.298;10.008;2023-06-19T11:38:24;3.70;;;3.40;;
35961;SDS011;22044;48.298;10.008;2023-06-19T11:41:10;3.75;;;3.45;;
35961;SDS011;22044;48.298;10.008;2023-06-19T11:44:02;3.90;;;3.60;;
35961;SDS011;22044;48.298;10.008;2023-06-19T11:46:49;4.55;;;3.80;;
35961;SDS011;22044;48.298;10.008;2023-06-19T11:49:35;4.88;;;3.65;;
35961;SDS011;22044;48.298;10.008;2023-06-19T11:52:20;3.90;;;3.60;;
35961;SDS011;22044;48.298;10.008;2023-06-19T11:55:06;7.10;;;3.70;;
35961;SDS011;22044;48.298;10.008;2023-06-19T11:57:52;5.18;;;3.60;;
35961;SDS011;22044;48.298;10.008;2023-06-19T12:00:39;3.65;;;3.35;;
35961;SDS011;22044;48.298;10.008;2023-06-19T12:03:25;3.78;;;3.47;;
35961;SDS011;22044;48.298;10.008;2023-06-19T12:06:11;4.35;;;3.95;;
35961;SDS011;22044;48.298;10.008;2023-06-19T12:08:56;5.00;;;3.78;;
35961;SDS011;22044;48.298;10.008;2023-06-19T12:11:43;4.35;;;3.90;;
35961;SDS011;22044;48.298;10.008;2023-06-19T12:14:28;5.65;;;3.80;;
35961;SDS011;22044;48.298;10.008;2023-06-19T12:17:16;4.38;;;4.00;;
35961;SDS011;22044;48.298;10.008;2023-06-19T12:20:01;4.82;;;4.18;;
35961;SDS011;22044;48.298;10.008;2023-06-19T12:22:50;6.93;;;4.20;;
35961;SDS011;22044;48.298;10.008;2023-06-19T12:25:36;4.30;;;3.90;;
35961;SDS011;22044;48.298;10.008;2023-06-19T12:28:22;4.90;;;4.40;;
35961;SDS011;22044;48.298;10.008;2023-06-19T12:31:08;4.72;;;4.25;;
35961;SDS011;22044;48.298;10.008;2023-06-19T12:33:56;4.70;;;3.75;;
35961;SDS011;22044;48.298;10.008;2023-06-19T12:36:41;4.75;;;4.25;;
35961;SDS011;22044;48.298;10.008;2023-06-19T12:39:27;5.82;;;4.20;;
35961;SDS011;22044;48.298;10.008;2023-06-19T12:42:12;6.50;;;4.45;;
35961;SDS011;22044;48.298;10.008;2023-06-19T12:44:58;4.25;;;3.88;;
35961;SDS011;22044;48.298;10.008;2023-06-19T12:47:44;6.40;;;4.22;;
35961;SDS011;22044;48.298;10.008;2023-06-19T12:50:31;5.43;;;4.20;;
35961;SDS011;22044;48.298;10.008;2023-06-19T12:53:16;10.98;;;5.07;;
35961;SDS011;22044;48.298;10.008;2023-06-19T12:56:02;5.47;;;4.50;;
35961;SDS011;22044;48.298;10.008;2023-06-19T12:58:48;4.65;;;4.25;;
35961;SDS011;22044;48.298;10.008;2023-06-19T13:01:34;5.10;;;4.43;;
35961;SDS011;22044;48.298;10.008;2023-06-19T13:04:19;5.05;;;4.65;;
35961;SDS011;22044;48.298;10.008;2023-06-19T13:07:06;5.38;;;4.88;;
35961;SDS011;22044;48.298;10.008;2023-06-19T13:09:52;6.93;;;4.70;;
35961;SDS011;22044;48.298;10.008;2023-06-19T13:12:38;5.15;;;4.75;;
35961;SDS011;22044;48.298;10.008;2023-06-19T13:15:25;5.60;;;5.10;;
35961;SDS011;22044;48.298;10.008;2023-06-19T13:18:12;6.80;;;4.95;;
35961;SDS011;22044;48.298;10.008;2023-06-19T13:20:57;6.85;;;5.40;;
35961;SDS011;22044;48.298;10.008;2023-06-19T13:23:44;5.65;;;5.22;;
35961;SDS011;22044;48.298;10.008;2023-06-19T13:26:32;4.88;;;4.47;;
35961;SDS011;22044;48.298;10.008;2023-06-19T13:29:18;5.20;;;4.70;;
35961;SDS011;22044;48.298;10.008;2023-06-19T13:32:04;5.60;;;4.60;;
35961;SDS011;22044;48.298;10.008;2023-06-19T13:34:49;5.22;;;4.80;;
35961;SDS011;22044;48.298;10.008;2023-06-19T13:37:36;5.40;;;4.95;;
35961;SDS011;22044;48.298;10.008;2023-06-19T13:40:25;5.20;;;4.70;;
35961;SDS011;22044;48.298;10.008;2023-06-19T13:43:10;5.82;;;5.00;;
35961;SDS011;22044;48.298;10.008;2023-06-19T13:45:56;5.30;;;4.65;;
35961;SDS011;22044;48.298;10.008;2023-06-19T13:48:42;4.80;;;4.40;;
35961;SDS011;22044;48.298;10.008;2023-06-19T13:51:27;6.97;;;5.07;;
35961;SDS011;22044;48.298;10.008;2023-06-19T13:54:13;4.78;;;4.38;;
35961;SDS011;22044;48.298;10.008;2023-06-19T13:57:00;5.25;;;4.70;;
35961;SDS011;22044;48.298;10.008;2023-06-19T13:59:46;5.25;;;4.75;;
35961;SDS011;22044;48.298;10.008;2023-06-19T14:02:32;5.05;;;4.65;;
35961;SDS011;22044;48.298;10.008;2023-06-19T14:05:18;5.57;;;4.65;;
35961;SDS011;22044;48.298;10.008;2023-06-19T14:08:04;5.28;;;4.30;;
35961;SDS011;22044;48.298;10.008;2023-06-19T14:10:50;5.50;;;4.43;;
35961;SDS011;22044;48.298;10.008;2023-06-19T14:13:37;6.30;;;4.78;;
35961;SDS011;22044;48.298;10.008;2023-06-19T14:16:22;5.47;;;4.97;;
35961;SDS011;22044;48.298;10.008;2023-06-19T14:19:08;5.07;;;4.60;;
35961;SDS011;22044;48.298;10.008;2023-06-19T14:21:55;5.07;;;4.60;;
35961;SDS011;22044;48.298;10.008;2023-06-19T14:24:41;5.82;;;5.07;;
35961;SDS011;22044;48.298;10.008;2023-06-19T14:27:26;5.75;;;4.63;;
35961;SDS011;22044;48.298;10.008;2023-06-19T14:30:14;4.78;;;4.38;;
35961;SDS011;22044;48.298;10.008;2023-06-19T14:32:59;6.90;;;4.35;;
35961;SDS011;22044;48.298;10.008;2023-06-19T14:35:45;5.57;;;4.35;;
35961;SDS011;22044;48.298;10.008;2023-06-19T14:38:31;5.10;;;4.40;;
35961;SDS011;22044;48.298;10.008;2023-06-19T14:41:17;4.47;;;4.07;;
35961;SDS011;22044;48.298;10.008;2023-06-19T14:44:02;8.52;;;4.97;;
35961;SDS011;22044;48.298;10.008;2023-06-19T14:46:50;5.43;;;4.90;;
35961;SDS011;22044;48.298;10.008;2023-06-19T14:49:35;5.03;;;4.53;;
35961;SDS011;22044;48.298;10.008;2023-06-19T14:52:22;4.88;;;4.47;;
35961;SDS011;22044;48.298;10.008;2023-06-19T14:55:09;5.00;;;4.50;;
35961;SDS011;22044;48.298;10.008;2023-06-19T14:57:55;5.40;;;4.90;;
35961;SDS011;22044;48.298;10.008;2023-06-19T15:00:41;4.47;;;4.07;;
35961;SDS011;22044;48.298;10.008;2023-06-19T15:03:28;4.90;;;4.45;;
35961;SDS011;22044;48.298;10.008;2023-06-19T15:06:13;5.00;;;4.60;;
35961;SDS011;22044;48.298;10.008;2023-06-19T15:08:59;5.05;;;4.55;;
35961;SDS011;22044;48.298;10.008;2023-06-19T15:11:45;4.78;;;4.35;;
35961;SDS011;22044;48.298;10.008;2023-06-19T15:14:30;5.22;;;4.75;;
35961;SDS011;22044;48.298;10.008;2023-06-19T15:17:17;8.20;;;4.35;;
35961;SDS011;22044;48.298;10.008;2023-06-19T15:20:05;5.22;;;4.82;;
35961;SDS011;22044;48.298;10.008;2023-06-19T15:22:52;5.00;;;4.50;;
35961;SDS011;22044;48.298;10.008;2023-06-19T15:25:38;7.20;;;4.60;;
35961;SDS011;22044;48.298;10.008;2023-06-19T15:28:23;6.78;;;4.53;;
35961;SDS011;22044;48.298;10.008;2023-06-19T15:31:09;4.95;;;4.55;;
35961;SDS011;22044;48.298;10.008;2023-06-19T15:33:54;5.45;;;4.70;;
35961;SDS011;22044;48.298;10.008;2023-06-19T15:36:41;5.35;;;4.88;;
35961;SDS011;22044;48.298;10.008;2023-06-19T15:39:27;4.82;;;4.43;;
35961;SDS011;22044;48.298;10.008;2023-06-19T15:42:13;4.50;;;4.10;;
35961;SDS011;22044;48.298;10.008;2023-06-19T15:44:58;5.32;;;4.28;;
35961;SDS011;22044;48.298;10.008;2023-06-19T15:47:44;4.80;;;4.43;;
35961;SDS011;22044;48.298;10.008;2023-06-19T15:50:30;5.00;;;4.47;;
35961;SDS011;22044;48.298;10.008;2023-06-19T15:53:19;4.90;;;4.53;;
35961;SDS011;22044;48.298;10.008;2023-06-19T15:56:05;5.30;;;4.80;;
35961;SDS011;22044;48.298;10.008;2023-06-19T15:58:50;5.13;;;4.50;;
35961;SDS011;22044;48.298;10.008;2023-06-19T16:01:36;6.55;;;4.35;;
35961;SDS011;22044;48.298;10.008;2023-06-19T16:04:22;4.30;;;3.90;;
35961;SDS011;22044;48.298;10.008;2023-06-19T16:07:08;5.95;;;4.70;;
35961;SDS011;22044;48.298;10.008;2023-06-19T16:09:55;4.68;;;4.28;;
35961;SDS011;22044;48.298;10.008;2023-06-19T16:12:41;5.07;;;4.53;;
35961;SDS011;22044;48.298;10.008;2023-06-19T16:15:26;5.13;;;4.65;;
35961;SDS011;22044;48.298;10.008;2023-06-19T16:18:12;4.90;;;4.50;;
35961;SDS011;22044;48.298;10.008;2023-06-19T16:20:58;5.07;;;4.60;;
35961;SDS011;22044;48.298;10.008;2023-06-19T16:23:43;5.65;;;4.88;;
35961;SDS011;22044;48.298;10.008;2023-06-19T16:26:31;4.93;;;4.53;;
35961;SDS011;22044;48.298;10.008;2023-06-19T16:29:16;4.63;;;4.22;;